createdAt,value
2022-11-09T00:00:58.897Z,0.00
2022-11-09T00:01:58.959Z,0.00
2022-11-09T00:02:59.000Z,0.00
2022-11-09T00:03:59.042Z,0.00
2022-11-09T00:04:59.099Z,0.00
2022-11-09T00:05:59.101Z,0.00
2022-11-09T00:06:59.289Z,0.00
2022-11-09T00:07:59.191Z,0.00
2022-11-09T00:09:04.141Z,0.00
2022-11-09T00:09:59.349Z,0.00
2022-11-09T00:10:59.334Z,0.00
2022-11-09T00:11:59.383Z,0.00
2022-11-09T00:12:59.441Z,0.00
2022-11-09T00:13:59.491Z,0.00
2022-11-09T00:14:59.534Z,0.00
2022-11-09T00:15:59.574Z,0.00
2022-11-09T00:16:59.633Z,0.00
2022-11-09T00:17:59.684Z,0.00
2022-11-09T00:18:59.733Z,0.00
2022-11-09T00:19:59.774Z,0.00
2022-11-09T00:20:59.821Z,0.00
2022-11-09T00:21:59.895Z,0.00
2022-11-09T00:22:59.932Z,0.00
2022-11-09T00:23:59.996Z,0.00
2022-11-09T00:25:00.045Z,0.00
2022-11-09T00:26:00.107Z,0.00
2022-11-09T00:27:00.145Z,0.00
2022-11-09T00:28:00.186Z,0.00
2022-11-09T00:29:00.257Z,0.00
2022-11-09T00:30:00.307Z,0.00
2022-11-09T00:31:00.357Z,0.00
2022-11-09T00:32:00.398Z,0.00
2022-11-09T00:33:00.450Z,0.00
2022-11-09T00:34:00.510Z,0.00
2022-11-09T00:35:00.561Z,0.00
2022-11-09T00:36:00.599Z,0.00
2022-11-09T00:37:00.641Z,0.00
2022-11-09T00:38:00.744Z,0.00
2022-11-09T00:39:00.713Z,0.00
2022-11-09T00:40:00.761Z,0.00
2022-11-09T00:41:00.822Z,0.00
2022-11-09T00:42:00.871Z,0.00
2022-11-09T00:43:00.911Z,0.00
2022-11-09T00:44:00.965Z,0.00
2022-11-09T00:45:01.001Z,0.00
2022-11-09T00:46:01.063Z,0.00
2022-11-09T00:47:01.062Z,0.00
2022-11-09T00:48:01.114Z,0.00
2022-11-09T00:49:01.154Z,0.00
2022-11-09T00:50:01.215Z,0.00
2022-11-09T00:51:01.254Z,0.00
2022-11-09T00:52:01.296Z,0.00
2022-11-09T00:53:01.345Z,0.00
2022-11-09T00:54:01.385Z,0.00
2022-11-09T00:55:01.445Z,0.00
2022-11-09T00:56:01.512Z,0.00
2022-11-09T00:57:01.496Z,0.00
2022-11-09T00:58:01.558Z,0.00
2022-11-09T00:59:01.606Z,0.00
2022-11-09T01:00:01.664Z,0.00
2022-11-09T01:01:01.745Z,0.00
2022-11-09T01:02:01.648Z,0.00
2022-11-09T01:03:01.710Z,0.00
2022-11-09T01:04:01.708Z,0.00
2022-11-09T01:05:01.761Z,0.00
2022-11-09T01:06:01.820Z,0.00
2022-11-09T01:07:01.999Z,0.00
2022-11-09T01:08:01.909Z,0.00
2022-11-09T01:09:01.950Z,0.00
2022-11-09T01:10:02.001Z,0.00
2022-11-09T01:11:02.061Z,0.00
2022-11-09T01:12:02.131Z,0.00
2022-11-09T01:13:02.119Z,0.00
2022-11-09T01:14:02.091Z,0.00
2022-11-09T01:15:02.094Z,0.00
2022-11-09T01:16:02.092Z,0.00
2022-11-09T01:17:02.101Z,0.00
2022-11-09T01:18:02.122Z,0.00
2022-11-09T01:19:02.162Z,0.00
2022-11-09T01:20:02.212Z,0.00
2022-11-09T01:21:02.223Z,0.00
2022-11-09T01:22:02.224Z,0.00
2022-11-09T01:23:02.293Z,0.00
2022-11-09T01:24:02.334Z,0.00
2022-11-09T01:25:02.375Z,0.00
2022-11-09T01:26:02.387Z,0.00
2022-11-09T01:27:02.398Z,0.00
2022-11-09T01:28:02.475Z,0.00
2022-11-09T01:29:02.535Z,0.00
2022-11-09T01:30:02.548Z,0.00
2022-11-09T01:31:02.560Z,0.00
2022-11-09T01:32:02.629Z,0.00
2022-11-09T01:33:02.696Z,0.00
2022-11-09T01:34:02.702Z,0.00
2022-11-09T01:35:02.738Z,0.00
2022-11-09T01:36:02.788Z,0.00
2022-11-09T01:37:02.834Z,0.00
2022-11-09T01:38:02.869Z,0.00
2022-11-09T01:39:02.910Z,0.00
2022-11-09T01:40:02.939Z,0.00
2022-11-09T01:41:02.987Z,0.00
2022-11-09T01:42:03.059Z,0.00
2022-11-09T01:43:03.110Z,0.00
2022-11-09T01:44:03.216Z,0.00
2022-11-09T01:45:03.191Z,0.00
2022-11-09T01:46:03.230Z,0.00
2022-11-09T01:47:03.282Z,0.00
2022-11-09T01:48:03.323Z,0.00
2022-11-09T01:49:03.321Z,0.00
2022-11-09T01:50:03.422Z,0.00
2022-11-09T01:51:03.394Z,0.00
2022-11-09T01:52:03.422Z,0.00
2022-11-09T01:53:03.463Z,0.00
2022-11-09T01:54:03.484Z,0.00
2022-11-09T01:55:03.565Z,0.00
2022-11-09T01:56:03.615Z,0.00
2022-11-09T01:57:03.635Z,0.00
2022-11-09T01:58:03.704Z,0.00
2022-11-09T01:59:03.694Z,0.00
2022-11-09T02:00:03.687Z,0.00
2022-11-09T02:01:03.806Z,0.00
2022-11-09T02:02:03.756Z,0.00
2022-11-09T02:03:03.758Z,0.00
2022-11-09T02:04:03.747Z,0.00
2022-11-09T02:05:03.825Z,0.00
2022-11-09T02:06:03.828Z,0.00
2022-11-09T02:07:03.932Z,0.00
2022-11-09T02:08:03.938Z,0.00
2022-11-09T02:09:03.919Z,0.00
2022-11-09T02:10:03.900Z,0.00
2022-11-09T02:11:03.948Z,0.00
2022-11-09T02:12:04.008Z,0.00
2022-11-09T02:13:04.059Z,0.00
2022-11-09T02:14:04.110Z,0.00
2022-11-09T02:15:04.170Z,0.00
2022-11-09T02:16:04.179Z,0.00
2022-11-09T02:17:04.232Z,0.00
2022-11-09T02:18:04.294Z,0.00
2022-11-09T02:19:04.350Z,0.00
2022-11-09T02:20:04.412Z,0.00
2022-11-09T02:21:04.453Z,0.00
2022-11-09T02:22:04.453Z,0.00
2022-11-09T02:23:04.492Z,0.00
2022-11-09T02:24:04.504Z,0.00
2022-11-09T02:25:04.485Z,0.00
2022-11-09T02:26:04.551Z,0.00
2022-11-09T02:27:04.593Z,0.00
2022-11-09T02:28:04.587Z,0.00
2022-11-09T02:29:04.608Z,0.00
2022-11-09T02:30:04.613Z,0.00
2022-11-09T02:31:04.674Z,0.00
2022-11-09T02:32:04.725Z,0.00
2022-11-09T02:33:04.784Z,0.00
2022-11-09T02:34:04.835Z,0.00
2022-11-09T02:35:04.816Z,0.00
2022-11-09T02:37:30.775Z,0.00
2022-11-09T02:38:30.778Z,0.00
2022-11-09T02:39:30.828Z,0.00
2022-11-09T02:40:30.837Z,0.00
2022-11-09T02:41:30.828Z,0.00
2022-11-09T02:42:30.878Z,0.00
2022-11-09T02:43:30.909Z,0.00
2022-11-09T02:44:30.913Z,0.00
2022-11-09T02:45:30.947Z,0.00
2022-11-09T02:46:30.951Z,0.00
2022-11-09T02:47:30.971Z,0.00
2022-11-09T02:48:30.950Z,0.00
2022-11-09T02:49:31.019Z,0.00
2022-11-09T02:50:31.004Z,0.00
2022-11-09T02:51:31.049Z,0.00
2022-11-09T02:52:31.072Z,0.00
2022-11-09T02:53:31.075Z,0.00
2022-11-09T02:54:31.132Z,0.00
2022-11-09T02:55:31.185Z,0.00
2022-11-09T02:56:31.222Z,0.00
2022-11-09T02:57:31.281Z,0.00
2022-11-09T02:58:31.324Z,0.00
2022-11-09T02:59:31.353Z,0.00
2022-11-09T03:00:31.383Z,0.00
2022-11-09T03:01:31.452Z,0.00
2022-11-09T03:02:31.414Z,0.00
2022-11-09T03:03:31.415Z,0.00
2022-11-09T03:04:31.465Z,0.00
2022-11-09T03:05:31.473Z,0.00
2022-11-09T03:06:31.493Z,0.00
2022-11-09T03:07:31.446Z,0.00
2022-11-09T03:08:31.448Z,0.00
2022-11-09T03:09:31.437Z,0.00
2022-11-09T03:10:31.477Z,0.00
2022-11-09T03:11:31.518Z,0.00
2022-11-09T03:12:31.516Z,0.00
2022-11-09T03:13:31.570Z,0.00
2022-11-09T03:14:31.639Z,0.00
2022-11-09T03:15:31.706Z,0.00
2022-11-09T03:16:31.691Z,0.00
2022-11-09T03:17:31.740Z,0.00
2022-11-09T03:18:31.829Z,0.00
2022-11-09T03:19:31.883Z,0.00
2022-11-09T03:20:31.861Z,0.00
2022-11-09T03:21:31.900Z,0.00
2022-11-09T03:22:31.954Z,0.00
2022-11-09T03:23:32.004Z,0.00
2022-11-09T03:24:31.991Z,0.00
2022-11-09T03:25:32.001Z,0.00
2022-11-09T03:26:32.043Z,0.00
2022-11-09T03:27:32.081Z,0.00
2022-11-09T03:28:32.105Z,0.00
2022-11-09T03:29:32.117Z,0.00
2022-11-09T03:30:32.115Z,0.00
2022-11-09T03:31:32.094Z,0.00
2022-11-09T03:32:32.154Z,0.00
2022-11-09T03:33:32.214Z,0.00
2022-11-09T03:34:32.213Z,0.00
2022-11-09T03:35:32.282Z,0.00
2022-11-09T03:36:32.345Z,0.00
2022-11-09T03:37:32.476Z,0.00
2022-11-09T03:38:32.412Z,0.00
2022-11-09T03:39:32.457Z,0.00
2022-11-09T03:40:32.518Z,0.00
2022-11-09T03:41:32.567Z,0.00
2022-11-09T03:42:32.559Z,0.00
2022-11-09T03:43:32.623Z,0.00
2022-11-09T03:44:32.668Z,0.00
2022-11-09T03:45:32.660Z,0.00
2022-11-09T03:46:32.699Z,0.00
2022-11-09T03:47:32.751Z,0.00
2022-11-09T03:48:32.790Z,0.00
2022-11-09T03:49:32.829Z,0.00
2022-11-09T03:50:32.848Z,0.00
2022-11-09T03:51:32.895Z,0.00
2022-11-09T03:52:32.911Z,0.00
2022-11-09T03:53:32.881Z,0.00
2022-11-09T03:54:32.902Z,0.00
2022-11-09T03:55:32.942Z,0.00
2022-11-09T03:56:32.992Z,0.00
2022-11-09T03:57:33.033Z,0.00
2022-11-09T03:58:33.053Z,0.00
2022-11-09T03:59:33.063Z,0.00
2022-11-09T04:00:33.107Z,0.00
2022-11-09T04:01:33.207Z,0.00
2022-11-09T04:02:33.193Z,0.00
2022-11-09T04:03:33.193Z,0.00
2022-11-09T04:04:33.245Z,0.00
2022-11-09T04:05:33.295Z,0.00
2022-11-09T04:06:33.385Z,0.00
2022-11-09T04:07:33.450Z,0.00
2022-11-09T04:08:33.435Z,0.00
2022-11-09T04:09:33.446Z,0.00
2022-11-09T04:10:33.496Z,0.00
2022-11-09T04:11:33.510Z,0.00
2022-11-09T04:12:33.478Z,0.00
2022-11-09T04:13:33.488Z,0.00
2022-11-09T04:14:33.528Z,0.00
2022-11-09T04:15:33.578Z,0.00
2022-11-09T04:16:33.652Z,0.00
2022-11-09T04:17:33.734Z,0.00
2022-11-09T04:18:33.774Z,0.00
2022-11-09T04:19:33.789Z,0.00
2022-11-09T04:20:33.830Z,0.00
2022-11-09T04:21:33.871Z,0.00
2022-11-09T04:22:33.894Z,0.00
2022-11-09T04:23:33.922Z,0.00
2022-11-09T04:24:33.962Z,0.00
2022-11-09T04:25:33.965Z,0.00
2022-11-09T04:26:33.939Z,0.00
2022-11-09T04:27:33.981Z,0.00
2022-11-09T04:28:34.016Z,0.00
2022-11-09T04:29:34.084Z,0.00
2022-11-09T04:30:34.073Z,0.00
2022-11-09T04:31:34.123Z,0.00
2022-11-09T04:32:34.158Z,0.00
2022-11-09T04:33:34.195Z,0.00
2022-11-09T04:34:34.277Z,0.00
2022-11-09T04:35:34.267Z,0.00
2022-11-09T04:36:34.333Z,0.00
2022-11-09T04:37:34.365Z,0.00
2022-11-09T04:38:34.424Z,0.00
2022-11-09T04:39:34.456Z,0.00
2022-11-09T04:40:34.487Z,0.00
2022-11-09T04:41:34.523Z,0.00
2022-11-09T04:42:34.588Z,0.00
2022-11-09T04:43:34.630Z,0.00
2022-11-09T04:44:34.663Z,0.00
2022-11-09T04:45:34.683Z,0.00
2022-11-09T04:46:34.748Z,0.00
2022-11-09T04:47:34.730Z,0.00
2022-11-09T04:48:34.770Z,0.00
2022-11-09T04:49:34.808Z,0.00
2022-11-09T04:50:34.830Z,0.00
2022-11-09T04:51:35.070Z,0.00
2022-11-09T04:52:35.200Z,0.00
2022-11-09T04:53:34.874Z,0.00
2022-11-09T04:54:34.921Z,0.00
2022-11-09T04:55:34.954Z,0.00
2022-11-09T04:56:35.002Z,0.00
2022-11-09T04:57:35.062Z,0.00
2022-11-09T04:58:35.031Z,0.00
2022-11-09T04:59:35.122Z,0.00
2022-11-09T05:00:35.184Z,0.00
2022-11-09T05:01:35.164Z,0.00
2022-11-09T05:02:35.335Z,0.00
2022-11-09T05:03:35.304Z,0.00
2022-11-09T05:04:35.283Z,0.00
2022-11-09T05:05:35.304Z,0.00
2022-11-09T05:06:35.456Z,0.00
2022-11-09T05:07:35.335Z,0.00
2022-11-09T05:08:35.395Z,0.00
2022-11-09T05:09:35.441Z,0.00
2022-11-09T05:10:35.475Z,0.00
2022-11-09T05:11:35.525Z,0.00
2022-11-09T05:12:35.507Z,0.00
2022-11-09T05:13:35.538Z,0.00
2022-11-09T05:14:35.580Z,0.00
2022-11-09T05:15:35.588Z,0.00
2022-11-09T05:16:35.587Z,0.00
2022-11-09T05:17:35.637Z,0.00
2022-11-09T05:18:35.678Z,0.00
2022-11-09T05:19:35.748Z,0.00
2022-11-09T05:20:35.789Z,0.00
2022-11-09T05:21:35.858Z,0.00
2022-11-09T05:22:35.900Z,0.00
2022-11-09T05:23:35.925Z,0.00
2022-11-09T05:24:35.952Z,0.00
2022-11-09T05:25:35.964Z,0.00
2022-11-09T05:26:36.022Z,0.00
2022-11-09T05:27:36.049Z,0.00
2022-11-09T05:28:36.052Z,0.00
2022-11-09T05:29:36.097Z,0.00
2022-11-09T05:30:36.812Z,0.00
2022-11-09T05:31:36.073Z,0.00
2022-11-09T05:32:36.115Z,0.00
2022-11-09T05:33:36.114Z,0.00
2022-11-09T05:34:36.116Z,0.00
2022-11-09T05:35:36.125Z,0.00
2022-11-09T05:36:36.164Z,0.00
2022-11-09T05:37:36.146Z,0.00
2022-11-09T05:38:36.175Z,0.00
2022-11-09T05:39:36.176Z,0.00
2022-11-09T05:40:36.195Z,0.00
2022-11-09T05:41:36.227Z,0.00
2022-11-09T05:42:36.216Z,0.00
2022-11-09T05:43:36.246Z,0.00
2022-11-09T05:44:36.297Z,0.00
2022-11-09T05:45:42.667Z,0.00
2022-11-09T05:46:36.377Z,0.00
2022-11-09T05:47:37.103Z,0.00
2022-11-09T05:48:36.406Z,0.00
2022-11-09T05:49:36.418Z,0.00
2022-11-09T05:50:36.443Z,0.00
2022-11-09T05:51:36.478Z,0.00
2022-11-09T05:52:36.567Z,0.00
2022-11-09T05:53:36.538Z,0.00
2022-11-09T05:54:36.529Z,0.00
2022-11-09T05:55:36.610Z,0.00
2022-11-09T05:56:36.601Z,0.00
2022-11-09T05:57:36.630Z,0.00
2022-11-09T05:58:36.684Z,0.00
2022-11-09T05:59:36.711Z,0.00
2022-11-09T06:00:37.646Z,0.00
2022-11-09T06:01:36.720Z,0.00
2022-11-09T06:02:36.911Z,0.00
2022-11-09T06:03:36.793Z,0.00
2022-11-09T06:04:36.812Z,0.00
2022-11-09T06:05:36.871Z,4.00
2022-11-09T06:06:36.913Z,4.00
2022-11-09T06:07:36.873Z,4.00
2022-11-09T06:08:36.946Z,0.00
2022-11-09T06:09:36.994Z,4.00
2022-11-09T06:10:37.018Z,4.00
2022-11-09T06:11:36.997Z,4.00
2022-11-09T06:12:37.046Z,4.00
2022-11-09T06:13:37.046Z,4.00
2022-11-09T06:14:37.112Z,4.00
2022-11-09T06:15:37.169Z,8.00
2022-11-09T06:16:37.186Z,8.00
2022-11-09T06:17:37.235Z,8.00
2022-11-09T06:18:37.276Z,8.00
2022-11-09T06:19:37.307Z,16.00
2022-11-09T06:20:37.386Z,20.00
2022-11-09T06:21:37.437Z,16.00
2022-11-09T06:22:37.436Z,16.00
2022-11-09T06:23:37.432Z,24.00
2022-11-09T06:24:37.420Z,32.00
2022-11-09T06:25:37.470Z,36.00
2022-11-09T06:26:37.479Z,44.00
2022-11-09T06:27:37.519Z,48.00
2022-11-09T06:28:37.530Z,48.00
2022-11-09T06:29:37.560Z,48.00
2022-11-09T06:30:37.590Z,48.00
2022-11-09T06:31:37.611Z,52.00
2022-11-09T06:32:37.681Z,56.00
2022-11-09T06:33:37.652Z,68.00
2022-11-09T06:34:37.672Z,88.00
2022-11-09T06:35:37.702Z,100.00
2022-11-09T06:36:37.693Z,116.00
2022-11-09T06:37:37.682Z,128.00
2022-11-09T06:38:37.726Z,140.00
2022-11-09T06:39:37.752Z,160.00
2022-11-09T06:40:37.825Z,168.00
2022-11-09T06:41:37.846Z,172.00
2022-11-09T06:42:37.936Z,156.00
2022-11-09T06:43:37.908Z,168.00
2022-11-09T06:44:37.975Z,176.00
2022-11-09T06:45:38.055Z,176.00
2022-11-09T06:46:38.066Z,204.00
2022-11-09T06:47:38.076Z,228.00
2022-11-09T06:48:38.136Z,252.00
2022-11-09T06:49:38.146Z,292.00
2022-11-09T06:50:38.197Z,304.00
2022-11-09T06:51:38.257Z,320.00
2022-11-09T06:52:38.237Z,328.00
2022-11-09T06:53:38.238Z,344.00
2022-11-09T06:54:38.310Z,372.00
2022-11-09T06:55:38.302Z,448.00
2022-11-09T06:56:38.350Z,492.00
2022-11-09T06:57:38.360Z,548.00
2022-11-09T06:58:38.410Z,592.00
2022-11-09T06:59:38.411Z,592.00
2022-11-09T07:00:38.470Z,600.00
2022-11-09T07:01:38.582Z,536.00
2022-11-09T07:02:38.489Z,560.00
2022-11-09T07:03:38.522Z,564.00
2022-11-09T07:04:38.583Z,584.00
2022-11-09T07:05:38.562Z,644.00
2022-11-09T07:06:38.626Z,648.00
2022-11-09T07:07:38.593Z,700.00
2022-11-09T07:08:38.602Z,776.00
2022-11-09T07:09:38.614Z,792.00
2022-11-09T07:10:38.672Z,776.00
2022-11-09T07:11:38.677Z,744.00
2022-11-09T07:12:38.643Z,812.00
2022-11-09T07:13:38.666Z,868.00
2022-11-09T07:14:38.666Z,840.00
2022-11-09T07:15:38.695Z,956.00
2022-11-09T07:16:38.696Z,1144.00
2022-11-09T07:17:38.694Z,1216.00
2022-11-09T07:18:38.788Z,1360.00
2022-11-09T07:19:38.757Z,1452.00
2022-11-09T07:20:38.776Z,1628.00
2022-11-09T07:21:38.807Z,1772.00
2022-11-09T07:22:38.889Z,1716.00
2022-11-09T07:23:38.919Z,1564.00
2022-11-09T07:24:38.908Z,1536.00
2022-11-09T07:25:38.907Z,1312.00
2022-11-09T07:26:38.917Z,1216.00
2022-11-09T07:27:38.943Z,1144.00
2022-11-09T07:28:38.937Z,1096.00
2022-11-09T07:29:39.040Z,1112.00
2022-11-09T07:30:38.984Z,1140.00
2022-11-09T07:31:39.011Z,1172.00
2022-11-09T07:33:08.741Z,1312.00
2022-11-09T07:33:39.096Z,1304.00
2022-11-09T07:34:39.112Z,1292.00
2022-11-09T07:35:39.141Z,1168.00
2022-11-09T07:36:39.193Z,1176.00
2022-11-09T07:37:39.232Z,1196.00
2022-11-09T07:38:39.230Z,1284.00
2022-11-09T07:39:39.283Z,1396.00
2022-11-09T07:40:39.355Z,1476.00
2022-11-09T07:41:39.404Z,1624.00
2022-11-09T07:42:40.226Z,1600.00
2022-11-09T07:43:39.454Z,1704.00
2022-11-09T07:44:39.507Z,1640.00
2022-11-09T07:45:39.582Z,1444.00
2022-11-09T07:46:39.534Z,1352.00
2022-11-09T07:47:39.586Z,1384.00
2022-11-09T07:48:39.575Z,1624.00
2022-11-09T07:49:39.606Z,1856.00
2022-11-09T07:50:39.667Z,2128.00
2022-11-09T07:51:39.696Z,2204.00
2022-11-09T07:52:39.700Z,2056.00
2022-11-09T07:53:39.748Z,2020.00
2022-11-09T07:54:39.725Z,2296.00
2022-11-09T07:55:39.796Z,2500.00
2022-11-09T07:56:39.837Z,2520.00
2022-11-09T07:57:39.869Z,2564.00
2022-11-09T07:58:39.867Z,2524.00
2022-11-09T07:59:39.925Z,2676.00
2022-11-09T08:00:39.967Z,2704.00
2022-11-09T08:01:40.083Z,2792.00
2022-11-09T08:02:40.079Z,2856.00
2022-11-09T08:03:40.089Z,2604.00
2022-11-09T08:04:40.119Z,2624.00
2022-11-09T08:05:40.140Z,2632.00
2022-11-09T08:06:40.194Z,2588.00
2022-11-09T08:07:40.151Z,2344.00
2022-11-09T08:08:40.188Z,2376.00
2022-11-09T08:09:40.220Z,2512.00
2022-11-09T08:10:40.281Z,2536.00
2022-11-09T08:11:40.292Z,2508.00
2022-11-09T08:12:40.352Z,2328.00
2022-11-09T08:13:40.401Z,2260.00
2022-11-09T08:14:40.445Z,2256.00
2022-11-09T08:15:40.550Z,2428.00
2022-11-09T08:16:40.505Z,2692.00
2022-11-09T08:17:40.493Z,3072.00
2022-11-09T08:18:40.553Z,3240.00
2022-11-09T08:19:40.543Z,3292.00
2022-11-09T08:20:40.597Z,3372.00
2022-11-09T08:21:40.637Z,3168.00
2022-11-09T08:22:40.626Z,3264.00
2022-11-09T08:23:40.674Z,2948.00
2022-11-09T08:24:40.715Z,2856.00
2022-11-09T08:25:40.722Z,2472.00
2022-11-09T08:26:40.766Z,2248.00
2022-11-09T08:27:40.796Z,2292.00
2022-11-09T08:28:40.856Z,2392.00
2022-11-09T08:29:40.875Z,2524.00
2022-11-09T08:30:40.920Z,2512.00
2022-11-09T08:31:40.917Z,2488.00
2022-11-09T08:32:40.978Z,2980.00
2022-11-09T08:33:41.061Z,3404.00
2022-11-09T08:34:41.062Z,3732.00
2022-11-09T08:35:41.083Z,4320.00
2022-11-09T08:36:41.124Z,4788.00
2022-11-09T08:37:41.143Z,4860.00
2022-11-09T08:38:41.141Z,4788.00
2022-11-09T08:39:41.164Z,4900.00
2022-11-09T08:40:41.215Z,5256.00
2022-11-09T08:41:41.281Z,6152.00
2022-11-09T08:42:41.281Z,6904.00
2022-11-09T08:43:41.263Z,5440.00
2022-11-09T08:44:41.286Z,4788.00
2022-11-09T08:45:41.328Z,4548.00
2022-11-09T08:46:41.678Z,4564.00
2022-11-09T08:47:41.392Z,4244.00
2022-11-09T08:48:41.417Z,4132.00
2022-11-09T08:49:41.414Z,4364.00
2022-11-09T08:50:41.434Z,3968.00
2022-11-09T08:51:41.514Z,3716.00
2022-11-09T08:52:41.506Z,3620.00
2022-11-09T08:53:41.565Z,3532.00
2022-11-09T08:54:41.565Z,3596.00
2022-11-09T08:55:43.848Z,3760.00
2022-11-09T08:56:41.645Z,3800.00
2022-11-09T08:57:41.649Z,3836.00
2022-11-09T08:58:41.676Z,3864.00
2022-11-09T08:59:41.762Z,3852.00
2022-11-09T09:00:41.737Z,3720.00
2022-11-09T09:01:41.845Z,3976.00
2022-11-09T09:02:41.806Z,4072.00
2022-11-09T09:03:41.856Z,3928.00
2022-11-09T09:04:41.858Z,3692.00
2022-11-09T09:05:41.929Z,3360.00
2022-11-09T09:06:41.996Z,3056.00
2022-11-09T09:07:41.989Z,2672.00
2022-11-09T09:08:42.004Z,2456.00
2022-11-09T09:09:41.989Z,2388.00
2022-11-09T09:10:42.049Z,2628.00
2022-11-09T09:11:42.052Z,3016.00
2022-11-09T09:12:42.099Z,3232.00
2022-11-09T09:13:43.685Z,3628.00
2022-11-09T09:14:42.131Z,4492.00
2022-11-09T09:15:42.141Z,5108.00
2022-11-09T09:16:42.133Z,6344.00
2022-11-09T09:17:42.141Z,6384.00
2022-11-09T09:18:42.195Z,6264.00
2022-11-09T09:19:44.857Z,6732.00
2022-11-09T09:20:42.267Z,7628.00
2022-11-09T09:21:42.250Z,7520.00
2022-11-09T09:22:42.284Z,6884.00
2022-11-09T09:23:42.351Z,6928.00
2022-11-09T09:24:42.335Z,6564.00
2022-11-09T09:25:42.416Z,6368.00
2022-11-09T09:26:42.385Z,6820.00
2022-11-09T09:27:42.414Z,6800.00
2022-11-09T09:28:42.426Z,7888.00
2022-11-09T09:29:42.445Z,7636.00
2022-11-09T09:30:42.462Z,7328.00
2022-11-09T09:31:42.447Z,7040.00
2022-11-09T09:32:42.457Z,7700.00
2022-11-09T09:33:42.497Z,9228.00
2022-11-09T09:34:42.499Z,8764.00
2022-11-09T09:35:42.528Z,9432.00
2022-11-09T09:36:47.697Z,9008.00
2022-11-09T09:37:42.693Z,11196.00
2022-11-09T09:38:42.567Z,7708.00
2022-11-09T09:39:42.611Z,7300.00
2022-11-09T09:40:42.606Z,7116.00
2022-11-09T09:41:42.615Z,6844.00
2022-11-09T09:42:42.600Z,7100.00
2022-11-09T09:43:43.554Z,8160.00
2022-11-09T09:44:42.701Z,7992.00
2022-11-09T09:45:42.683Z,8664.00
2022-11-09T09:46:42.765Z,12352.00
2022-11-09T09:47:42.813Z,12836.00
2022-11-09T09:48:42.786Z,12040.00
2022-11-09T09:49:42.839Z,11204.00
2022-11-09T09:50:42.873Z,10740.00
2022-11-09T09:51:42.865Z,11212.00
2022-11-09T09:52:50.644Z,9456.00
2022-11-09T09:53:43.055Z,9124.00
2022-11-09T09:54:42.997Z,8916.00
2022-11-09T09:55:43.034Z,9920.00
2022-11-09T09:56:43.096Z,10416.00
2022-11-09T09:57:43.046Z,10160.00
2022-11-09T09:58:43.016Z,10204.00
2022-11-09T09:59:43.009Z,10844.00
2022-11-09T10:00:43.075Z,10936.00
2022-11-09T10:01:43.072Z,9532.00
2022-11-09T10:02:43.098Z,10448.00
2022-11-09T10:03:43.068Z,10484.00
2022-11-09T10:04:43.120Z,10284.00
2022-11-09T10:05:43.039Z,11280.00
2022-11-09T10:06:43.170Z,11468.00
2022-11-09T10:07:43.260Z,11252.00
2022-11-09T10:08:43.161Z,11020.00
2022-11-09T10:09:43.230Z,10520.00
2022-11-09T10:10:44.001Z,10784.00
2022-11-09T10:11:43.241Z,11488.00
2022-11-09T10:12:43.250Z,11440.00
2022-11-09T10:13:43.293Z,10844.00
2022-11-09T10:14:43.312Z,10560.00
2022-11-09T10:15:43.303Z,10444.00
2022-11-09T10:16:43.323Z,9912.00
2022-11-09T10:17:43.345Z,10200.00
2022-11-09T10:18:43.343Z,10112.00
2022-11-09T10:19:43.353Z,10204.00
2022-11-09T10:20:43.363Z,11068.00
2022-11-09T10:21:43.423Z,11480.00
2022-11-09T10:22:43.424Z,14108.00
2022-11-09T10:23:43.475Z,15712.00
2022-11-09T10:24:58.779Z,18016.00
2022-11-09T10:26:03.135Z,17600.00
2022-11-09T10:26:43.654Z,17664.00
2022-11-09T10:27:43.725Z,18656.00
2022-11-09T10:29:13.915Z,18272.00
2022-11-09T10:29:43.697Z,18464.00
2022-11-09T10:30:43.658Z,16832.00
2022-11-09T10:31:43.669Z,16576.00
2022-11-09T10:32:43.697Z,19232.00
2022-11-09T10:33:43.729Z,18848.00
2022-11-09T10:34:43.741Z,20704.00
2022-11-09T10:35:43.772Z,22080.00
2022-11-09T10:36:43.831Z,18016.00
2022-11-09T10:37:43.882Z,17664.00
2022-11-09T10:38:43.905Z,13960.00
2022-11-09T10:39:43.940Z,20000.00
2022-11-09T10:40:43.931Z,9416.00
2022-11-09T10:41:43.934Z,15072.00
2022-11-09T10:42:43.983Z,16672.00
2022-11-09T10:43:44.052Z,17632.00
2022-11-09T10:44:44.065Z,7844.00
2022-11-09T10:45:44.105Z,15616.00
2022-11-09T10:46:44.165Z,10232.00
2022-11-09T10:47:44.196Z,16864.00
2022-11-09T10:48:44.255Z,17664.00
2022-11-09T10:49:44.295Z,10644.00
2022-11-09T10:50:44.313Z,16128.00
2022-11-09T10:51:44.366Z,11436.00
2022-11-09T10:52:47.454Z,13720.00
2022-11-09T10:53:44.419Z,13624.00
2022-11-09T10:54:44.467Z,14216.00
2022-11-09T10:55:44.474Z,14508.00
2022-11-09T10:57:04.964Z,13232.00
2022-11-09T10:57:44.569Z,13840.00
2022-11-09T10:58:44.633Z,10336.00
2022-11-09T10:59:44.634Z,7824.00
2022-11-09T11:00:44.680Z,14444.00
2022-11-09T11:01:44.816Z,10380.00
2022-11-09T11:02:44.805Z,13752.00
2022-11-09T11:03:44.824Z,8952.00
2022-11-09T11:04:44.854Z,8032.00
2022-11-09T11:05:44.922Z,8492.00
2022-11-09T11:06:44.941Z,7812.00
2022-11-09T11:07:44.961Z,7420.00
2022-11-09T11:08:44.992Z,8260.00
2022-11-09T11:09:45.034Z,8596.00
2022-11-09T11:10:45.004Z,7972.00
2022-11-09T11:11:45.073Z,6652.00
2022-11-09T11:12:45.098Z,6324.00
2022-11-09T11:13:45.143Z,10332.00
2022-11-09T11:14:45.176Z,10296.00
2022-11-09T11:15:45.180Z,9924.00
2022-11-09T11:16:45.218Z,8264.00
2022-11-09T11:17:45.186Z,10372.00
2022-11-09T11:18:45.228Z,14464.00
2022-11-09T11:19:45.236Z,10736.00
2022-11-09T11:20:45.209Z,10612.00
2022-11-09T11:21:45.301Z,14592.00
2022-11-09T11:22:45.328Z,13708.00
2022-11-09T11:23:45.399Z,8056.00
2022-11-09T11:24:45.441Z,12872.00
2022-11-09T11:25:45.484Z,14540.00
2022-11-09T11:26:45.510Z,9640.00
2022-11-09T11:27:45.572Z,11388.00
2022-11-09T11:28:45.581Z,11668.00
2022-11-09T11:29:45.598Z,12408.00
2022-11-09T11:30:45.623Z,12952.00
2022-11-09T11:31:45.649Z,13036.00
2022-11-09T11:32:50.365Z,10600.00
2022-11-09T11:33:45.804Z,10720.00
2022-11-09T11:34:59.702Z,12108.00
2022-11-09T11:35:45.793Z,11648.00
2022-11-09T11:36:45.826Z,11152.00
2022-11-09T11:37:45.871Z,10880.00
2022-11-09T11:38:45.899Z,9744.00
2022-11-09T11:39:45.946Z,10768.00
2022-11-09T11:40:45.966Z,7656.00
2022-11-09T11:41:45.957Z,6876.00
2022-11-09T11:42:46.008Z,6680.00
2022-11-09T11:43:46.096Z,6784.00
2022-11-09T11:44:52.089Z,6504.00
2022-11-09T11:45:46.080Z,7284.00
2022-11-09T11:46:46.078Z,6276.00
2022-11-09T11:47:46.124Z,6668.00
2022-11-09T11:48:46.200Z,7060.00
2022-11-09T11:49:46.258Z,6792.00
2022-11-09T11:50:46.263Z,7504.00
2022-11-09T11:51:46.302Z,7416.00
2022-11-09T11:52:46.352Z,7260.00
2022-11-09T11:53:46.372Z,6508.00
2022-11-09T11:54:46.363Z,5548.00
2022-11-09T11:55:46.403Z,5656.00
2022-11-09T11:56:46.443Z,5164.00
2022-11-09T11:57:46.442Z,5144.00
2022-11-09T11:58:46.447Z,5360.00
2022-11-09T11:59:46.475Z,5572.00
2022-11-09T12:00:46.504Z,6316.00
2022-11-09T12:01:46.656Z,6772.00
2022-11-09T12:02:46.574Z,6596.00
2022-11-09T12:03:50.417Z,6548.00
2022-11-09T12:04:46.679Z,10316.00
2022-11-09T12:05:46.777Z,8248.00
2022-11-09T12:06:46.788Z,7152.00
2022-11-09T12:07:46.766Z,6316.00
2022-11-09T12:08:46.768Z,6416.00
2022-11-09T12:09:46.848Z,6108.00
2022-11-09T12:10:46.879Z,7564.00
2022-11-09T12:11:46.922Z,9196.00
2022-11-09T12:12:46.962Z,7620.00
2022-11-09T12:13:49.653Z,7944.00
2022-11-09T12:14:47.051Z,7544.00
2022-11-09T12:15:47.131Z,8660.00
2022-11-09T12:16:47.103Z,7896.00
2022-11-09T12:17:47.148Z,7008.00
2022-11-09T12:18:47.176Z,6752.00
2022-11-09T12:19:47.232Z,6724.00
2022-11-09T12:20:47.312Z,6904.00
2022-11-09T12:21:47.392Z,6720.00
2022-11-09T12:22:47.432Z,6556.00
2022-11-09T12:23:47.463Z,6480.00
2022-11-09T12:24:47.463Z,12076.00
2022-11-09T12:25:47.503Z,13316.00
2022-11-09T12:26:55.724Z,11752.00
2022-11-09T12:27:47.585Z,7344.00
2022-11-09T12:28:47.635Z,7040.00
2022-11-09T12:29:47.734Z,6416.00
2022-11-09T12:30:47.740Z,6332.00
2022-11-09T12:31:47.777Z,7368.00
2022-11-09T12:32:47.797Z,7584.00
2022-11-09T12:33:47.813Z,5396.00
2022-11-09T12:34:47.837Z,7652.00
2022-11-09T12:35:47.967Z,4856.00
2022-11-09T12:36:47.921Z,5512.00
2022-11-09T12:37:47.953Z,8144.00
2022-11-09T12:38:47.940Z,7344.00
2022-11-09T12:39:47.970Z,4252.00
2022-11-09T12:40:48.111Z,3964.00
2022-11-09T12:41:48.949Z,4128.00